createdAt,value
2017-10-12T00:01:33.566Z,6.85
2017-10-12T00:04:01.000Z,7.18
2017-10-12T00:06:28.448Z,6.87
2017-10-12T00:08:55.893Z,8.30
2017-10-12T00:11:23.344Z,7.00
2017-10-12T00:13:50.789Z,6.95
2017-10-12T00:16:18.261Z,7.37
2017-10-12T00:18:46.456Z,7.32
2017-10-12T00:21:13.896Z,7.28
2017-10-12T00:23:41.411Z,7.70
2017-10-12T00:26:09.628Z,7.62
2017-10-12T00:28:37.063Z,7.30
2017-10-12T00:31:04.524Z,7.30
2017-10-12T00:33:31.980Z,6.78
2017-10-12T00:36:00.213Z,7.07
2017-10-12T00:38:27.640Z,8.50
2017-10-12T00:40:55.089Z,7.40
2017-10-12T00:43:22.523Z,8.10
2017-10-12T00:45:49.982Z,7.57
2017-10-12T00:48:17.424Z,6.90
2017-10-12T00:50:44.870Z,6.28
2017-10-12T00:53:12.325Z,7.12
2017-10-12T00:55:39.772Z,7.15
2017-10-12T00:58:07.228Z,6.57
2017-10-12T01:00:34.665Z,6.90
2017-10-12T01:03:02.162Z,6.50
2017-10-12T01:05:29.611Z,7.30
2017-10-12T01:07:57.054Z,6.80
2017-10-12T01:10:24.530Z,6.30
2017-10-12T01:12:51.983Z,6.70
2017-10-12T01:15:19.424Z,6.53
2017-10-12T01:17:46.887Z,6.80
2017-10-12T01:20:14.340Z,6.32
2017-10-12T01:22:41.814Z,6.00
2017-10-12T01:25:09.260Z,6.20
2017-10-12T01:27:36.812Z,6.20
2017-10-12T01:30:04.241Z,6.30
2017-10-12T01:32:31.697Z,5.50
2017-10-12T01:34:59.509Z,6.65
2017-10-12T01:37:26.969Z,7.10
2017-10-12T01:39:54.411Z,5.97
2017-10-12T01:42:21.860Z,6.22
2017-10-12T01:44:49.291Z,6.65
2017-10-12T01:47:17.573Z,4.97
2017-10-12T01:49:44.995Z,6.20
2017-10-12T01:52:12.436Z,6.05
2017-10-12T01:54:39.897Z,5.62
2017-10-12T01:57:07.434Z,6.95
2017-10-12T01:59:34.876Z,12.30
2017-10-12T02:02:02.346Z,6.15
2017-10-12T02:04:29.800Z,5.97
2017-10-12T02:06:57.247Z,5.28
2017-10-12T02:09:24.712Z,5.50
2017-10-12T02:11:52.168Z,6.12
2017-10-12T02:14:19.620Z,5.35
2017-10-12T02:16:47.077Z,5.07
2017-10-12T02:19:14.543Z,5.05
2017-10-12T02:21:41.991Z,4.65
2017-10-12T02:24:09.463Z,4.40
2017-10-12T02:26:37.655Z,4.90
2017-10-12T02:29:05.124Z,4.15
2017-10-12T02:31:32.568Z,4.85
2017-10-12T02:33:59.996Z,4.87
2017-10-12T02:36:27.446Z,5.20
2017-10-12T02:38:54.887Z,5.07
2017-10-12T02:41:22.328Z,15.63
2017-10-12T02:43:49.767Z,22.10
2017-10-12T02:46:17.209Z,5.87
2017-10-12T02:48:44.672Z,4.50
2017-10-12T02:51:12.137Z,4.67
2017-10-12T02:53:39.657Z,4.73
2017-10-12T02:56:07.104Z,4.23
2017-10-12T02:58:34.562Z,3.90
2017-10-12T03:01:02.026Z,3.90
2017-10-12T03:03:30.238Z,4.37
2017-10-12T03:05:57.696Z,4.30
2017-10-12T03:08:25.133Z,3.57
2017-10-12T03:10:52.611Z,5.00
2017-10-12T03:13:20.051Z,4.00
2017-10-12T03:15:47.504Z,4.20
2017-10-12T03:18:15.713Z,4.90
2017-10-12T03:20:43.940Z,4.23
2017-10-12T03:23:11.388Z,3.80
2017-10-12T03:25:38.837Z,4.23
2017-10-12T03:28:06.275Z,4.30
2017-10-12T03:30:34.600Z,4.60
2017-10-12T03:33:02.821Z,7.97
2017-10-12T03:35:30.254Z,8.83
2017-10-12T03:37:57.691Z,7.50
2017-10-12T03:40:25.148Z,5.97
2017-10-12T03:42:52.620Z,4.62
2017-10-12T03:45:20.052Z,4.53
2017-10-12T03:47:47.492Z,4.63
2017-10-12T03:50:14.941Z,3.60
2017-10-12T03:52:42.391Z,4.33
2017-10-12T03:55:09.821Z,3.57
2017-10-12T03:57:37.997Z,4.10
2017-10-12T04:00:05.432Z,3.92
2017-10-12T04:02:32.895Z,3.40
2017-10-12T04:05:00.328Z,3.30
2017-10-12T04:07:27.776Z,4.45
2017-10-12T04:09:55.219Z,4.53
2017-10-12T04:12:22.667Z,3.90
2017-10-12T04:14:50.892Z,3.62
2017-10-12T04:17:18.328Z,4.20
2017-10-12T04:19:45.789Z,4.45
2017-10-12T04:22:13.234Z,4.10
2017-10-12T04:24:40.697Z,4.13
2017-10-12T04:27:08.954Z,4.37
2017-10-12T04:29:36.408Z,4.30
2017-10-12T04:32:03.886Z,3.90
2017-10-12T04:34:31.319Z,4.90
2017-10-12T04:36:58.769Z,4.32
2017-10-12T04:39:26.244Z,4.23
2017-10-12T04:41:53.687Z,5.43
2017-10-12T04:44:21.144Z,4.37
2017-10-12T04:46:48.597Z,5.03
2017-10-12T04:49:16.023Z,4.80
2017-10-12T04:51:43.459Z,5.30
2017-10-12T04:54:10.916Z,4.23
2017-10-12T04:56:38.357Z,5.27
2017-10-12T04:59:05.819Z,4.93
2017-10-12T05:01:34.025Z,5.53
2017-10-12T05:04:02.372Z,5.60
2017-10-12T05:06:29.816Z,5.07
2017-10-12T05:08:57.281Z,5.20
2017-10-12T05:11:24.738Z,5.33
2017-10-12T05:13:52.209Z,5.93
2017-10-12T05:16:19.654Z,5.37
2017-10-12T05:18:47.862Z,5.43
2017-10-12T05:21:15.321Z,4.60
2017-10-12T05:23:42.859Z,5.00
2017-10-12T05:26:10.307Z,5.25
2017-10-12T05:28:37.866Z,5.07
2017-10-12T05:31:05.284Z,5.00
2017-10-12T05:33:32.756Z,6.27
2017-10-12T05:36:00.241Z,6.20
2017-10-12T05:38:27.667Z,5.30
2017-10-12T05:40:55.907Z,4.93
2017-10-12T05:43:23.358Z,4.80
2017-10-12T05:45:51.588Z,6.22
2017-10-12T05:48:19.063Z,4.57
2017-10-12T05:50:46.500Z,4.83
2017-10-12T05:53:13.933Z,4.20
2017-10-12T05:55:41.378Z,4.47
2017-10-12T05:58:08.816Z,3.73
2017-10-12T06:00:36.278Z,3.73
2017-10-12T06:03:03.707Z,3.70
2017-10-12T06:05:31.140Z,5.30
2017-10-12T06:07:58.596Z,3.87
2017-10-12T06:10:26.054Z,4.23
2017-10-12T06:12:54.358Z,3.90
2017-10-12T06:15:21.797Z,4.40
2017-10-12T06:17:49.285Z,4.17
2017-10-12T06:20:16.720Z,4.80
2017-10-12T06:22:44.164Z,3.90
2017-10-12T06:25:11.633Z,3.63
2017-10-12T06:27:39.102Z,3.60
2017-10-12T06:30:07.308Z,4.20
2017-10-12T06:32:34.735Z,3.43
2017-10-12T06:35:02.531Z,3.57
2017-10-12T06:37:29.955Z,3.50
2017-10-12T06:39:57.384Z,3.00
2017-10-12T06:42:24.824Z,3.03
2017-10-12T06:44:52.312Z,3.07
2017-10-12T06:47:20.506Z,3.20
2017-10-12T06:49:47.944Z,3.43
2017-10-12T06:52:15.380Z,3.70
2017-10-12T06:54:42.837Z,3.37
2017-10-12T06:57:10.280Z,3.90
2017-10-12T06:59:37.753Z,3.70
2017-10-12T07:02:05.217Z,4.40
2017-10-12T07:04:34.173Z,3.53
2017-10-12T07:07:01.730Z,3.50
2017-10-12T07:09:29.928Z,2.60
2017-10-12T07:11:57.377Z,2.70
2017-10-12T07:14:24.822Z,2.57
2017-10-12T07:16:52.251Z,3.07
2017-10-12T07:19:20.543Z,3.30
2017-10-12T07:21:48.006Z,3.93
2017-10-12T07:24:15.464Z,3.23
2017-10-12T07:26:42.915Z,2.57
2017-10-12T07:29:11.120Z,3.43
2017-10-12T07:31:38.570Z,3.53
2017-10-12T07:34:06.027Z,8.33
2017-10-12T07:36:33.464Z,5.77
2017-10-12T07:39:00.923Z,5.33
2017-10-12T07:41:29.129Z,5.33
2017-10-12T07:43:56.586Z,4.30
2017-10-12T07:46:24.664Z,4.13
2017-10-12T07:48:52.135Z,3.13
2017-10-12T07:51:20.337Z,3.27
2017-10-12T07:53:47.782Z,2.70
2017-10-12T07:56:15.218Z,3.00
2017-10-12T07:58:42.665Z,3.00
2017-10-12T08:01:10.859Z,2.57
2017-10-12T08:03:38.311Z,3.43
2017-10-12T08:06:05.744Z,2.80
2017-10-12T08:08:33.206Z,3.47
2017-10-12T08:11:01.403Z,2.93
2017-10-12T08:13:28.854Z,3.10
2017-10-12T08:15:56.280Z,2.73
2017-10-12T08:18:23.719Z,2.70
2017-10-12T08:20:51.174Z,2.90
2017-10-12T08:23:18.611Z,3.40
2017-10-12T08:25:46.043Z,3.30
2017-10-12T08:28:13.671Z,3.20
2017-10-12T08:30:41.131Z,3.80
2017-10-12T08:33:08.608Z,3.20
2017-10-12T08:35:36.049Z,3.47
2017-10-12T08:38:03.497Z,3.30
2017-10-12T08:40:30.935Z,3.40
2017-10-12T08:42:58.371Z,3.13
2017-10-12T08:45:25.820Z,2.93
2017-10-12T08:47:54.067Z,8.90
2017-10-12T08:50:21.508Z,3.77
2017-10-12T08:52:48.974Z,4.23
2017-10-12T08:55:16.412Z,3.77
2017-10-12T08:57:43.852Z,3.43
2017-10-12T09:00:11.314Z,3.40
2017-10-12T09:02:39.512Z,3.13
2017-10-12T09:05:06.957Z,3.50
2017-10-12T09:07:34.397Z,3.10
2017-10-12T09:10:01.855Z,3.10
2017-10-12T09:12:29.424Z,3.83
2017-10-12T09:14:56.875Z,3.00
2017-10-12T09:17:24.328Z,4.00
2017-10-12T09:19:52.528Z,3.47
2017-10-12T09:22:19.977Z,3.10
2017-10-12T09:27:20.282Z,4.00
2017-10-12T09:29:47.722Z,3.20
2017-10-12T09:32:15.266Z,3.30
2017-10-12T09:34:42.693Z,3.97
2017-10-12T09:37:10.892Z,3.67
2017-10-12T09:39:38.330Z,3.03
2017-10-12T09:42:05.767Z,4.00
2017-10-12T09:44:33.214Z,3.90
2017-10-12T09:47:00.649Z,4.27
2017-10-12T09:49:28.109Z,4.07
2017-10-12T09:51:55.543Z,3.63
2017-10-12T09:54:22.996Z,3.53
2017-10-12T09:56:50.425Z,3.60
2017-10-12T09:59:17.891Z,4.60
2017-10-12T10:01:45.477Z,3.40
2017-10-12T10:04:12.928Z,3.77
2017-10-12T10:06:40.368Z,4.10
2017-10-12T10:09:07.817Z,4.27
2017-10-12T10:11:35.259Z,3.93
2017-10-12T10:14:02.685Z,4.90
2017-10-12T10:16:30.150Z,5.77
2017-10-12T10:18:58.355Z,4.23
2017-10-12T10:21:26.592Z,3.90
2017-10-12T10:23:54.038Z,3.10
2017-10-12T10:26:21.493Z,3.57
2017-10-12T10:28:48.950Z,4.10
2017-10-12T10:31:17.248Z,3.37
2017-10-12T10:33:44.703Z,3.30
2017-10-12T10:36:12.151Z,4.00
2017-10-12T10:38:39.603Z,4.07
2017-10-12T10:41:07.067Z,3.27
2017-10-12T10:43:35.281Z,4.13
2017-10-12T10:46:02.736Z,3.80
2017-10-12T10:48:30.193Z,3.83
2017-10-12T10:50:57.615Z,3.60
2017-10-12T10:53:25.084Z,3.63
2017-10-12T10:55:52.520Z,4.13
2017-10-12T10:58:20.044Z,3.67
2017-10-12T11:00:47.481Z,3.43
2017-10-12T11:03:14.941Z,3.30
2017-10-12T11:05:42.373Z,3.93
2017-10-12T11:08:09.817Z,4.10
2017-10-12T11:10:37.260Z,3.97
2017-10-12T11:13:04.708Z,3.70
2017-10-12T11:15:32.151Z,4.77
2017-10-12T11:17:59.597Z,4.03
2017-10-12T11:20:27.034Z,3.40
2017-10-12T11:22:54.469Z,3.73
2017-10-12T11:25:21.925Z,3.83
2017-10-12T11:27:49.360Z,3.60
2017-10-12T11:30:16.809Z,3.60
2017-10-12T11:32:44.285Z,3.13
2017-10-12T11:35:11.771Z,2.60
2017-10-12T11:37:39.210Z,3.20
2017-10-12T11:40:06.649Z,3.30
2017-10-12T11:42:34.090Z,2.83
2017-10-12T11:45:02.293Z,3.20
2017-10-12T11:47:29.728Z,2.63
2017-10-12T11:49:57.174Z,4.13
2017-10-12T11:52:24.595Z,3.10
2017-10-12T11:54:52.466Z,3.00
2017-10-12T11:57:19.905Z,3.37
2017-10-12T11:59:47.364Z,3.93
2017-10-12T12:02:15.573Z,2.83
2017-10-12T12:04:43.045Z,2.67
2017-10-12T12:07:10.501Z,3.30
2017-10-12T12:09:38.714Z,3.20
2017-10-12T12:12:06.164Z,3.00
2017-10-12T12:14:33.595Z,3.00
2017-10-12T12:17:01.046Z,3.47
2017-10-12T12:19:28.501Z,3.37
2017-10-12T12:21:55.920Z,3.47
2017-10-12T12:24:23.372Z,4.03
2017-10-12T12:26:50.813Z,3.30
2017-10-12T12:29:18.278Z,2.60
2017-10-12T12:31:45.720Z,2.77
2017-10-12T12:34:13.173Z,2.83
2017-10-12T12:36:40.633Z,3.60
2017-10-12T12:39:08.107Z,3.20
2017-10-12T12:41:36.328Z,2.87
2017-10-12T12:44:03.768Z,3.40
2017-10-12T12:46:31.204Z,2.77
2017-10-12T12:48:58.637Z,2.90
2017-10-12T12:51:26.088Z,3.10
2017-10-12T12:53:53.522Z,3.57
2017-10-12T12:56:21.017Z,3.23
2017-10-12T12:58:49.224Z,3.10
2017-10-12T13:01:16.666Z,2.80
2017-10-12T13:03:44.104Z,3.00
2017-10-12T13:06:11.547Z,3.23
2017-10-12T13:08:39.044Z,2.50
2017-10-12T13:11:06.497Z,3.07
2017-10-12T13:13:33.933Z,2.90
2017-10-12T13:16:01.400Z,3.03
2017-10-12T13:18:28.909Z,3.30
2017-10-12T13:20:56.364Z,3.30
2017-10-12T13:23:23.806Z,3.40
2017-10-12T13:25:51.227Z,2.87
2017-10-12T13:28:18.671Z,3.67
2017-10-12T13:30:46.126Z,4.70
2017-10-12T13:33:13.572Z,2.70
2017-10-12T13:35:41.013Z,3.30
2017-10-12T13:38:08.478Z,2.97
2017-10-12T13:40:35.931Z,2.87
2017-10-12T13:43:04.136Z,3.20
2017-10-12T13:45:31.568Z,3.27
2017-10-12T13:47:59.032Z,2.83
2017-10-12T13:50:26.504Z,2.90
2017-10-12T13:52:53.948Z,3.00
2017-10-12T13:55:21.381Z,2.97
2017-10-12T13:57:48.846Z,3.20
2017-10-12T14:00:17.062Z,2.67
2017-10-12T14:02:44.520Z,3.23
2017-10-12T14:05:11.961Z,2.80
2017-10-12T14:07:39.401Z,3.50
2017-10-12T14:10:06.863Z,3.50
2017-10-12T14:12:34.317Z,3.70
2017-10-12T14:15:02.753Z,3.30
2017-10-12T14:17:30.221Z,3.30
2017-10-12T14:19:57.670Z,3.30
2017-10-12T14:22:25.153Z,3.00
2017-10-12T14:24:52.586Z,2.60
2017-10-12T14:27:20.023Z,2.90
2017-10-12T14:29:47.538Z,3.00
2017-10-12T14:32:14.975Z,3.40
2017-10-12T14:34:43.932Z,2.80
2017-10-12T14:37:11.364Z,2.90
2017-10-12T14:39:38.800Z,3.00
2017-10-12T14:42:06.236Z,3.07
2017-10-12T14:44:33.693Z,3.63
2017-10-12T14:47:01.166Z,2.43
2017-10-12T14:49:29.463Z,2.83
2017-10-12T14:51:56.934Z,4.10
2017-10-12T14:54:24.387Z,2.47
2017-10-12T14:56:51.823Z,2.60
2017-10-12T14:59:19.269Z,2.93
2017-10-12T15:01:46.708Z,2.40
2017-10-12T15:04:14.163Z,3.27
2017-10-12T15:06:41.606Z,3.10
2017-10-12T15:09:10.584Z,3.00
2017-10-12T15:11:38.025Z,2.97
2017-10-12T15:14:05.478Z,2.60
2017-10-12T15:16:32.905Z,3.07
2017-10-12T15:19:00.349Z,2.73
2017-10-12T15:21:27.796Z,3.00
2017-10-12T15:23:55.236Z,2.80
2017-10-12T15:26:22.665Z,2.80
2017-10-12T15:28:50.156Z,2.77
2017-10-12T15:31:17.659Z,2.90
2017-10-12T15:33:45.113Z,2.77
2017-10-12T15:36:12.560Z,3.20
2017-10-12T15:38:40.069Z,3.90
2017-10-12T15:41:08.262Z,5.17
2017-10-12T15:43:35.744Z,3.50
2017-10-12T15:46:03.196Z,4.60
2017-10-12T15:48:30.649Z,5.00
2017-10-12T15:50:58.080Z,3.73
2017-10-12T15:53:25.524Z,9.83
2017-10-12T15:55:52.964Z,9.90
2017-10-12T15:58:20.395Z,4.07
2017-10-12T16:00:47.865Z,8.80
2017-10-12T16:03:15.295Z,4.30
2017-10-12T16:05:42.741Z,8.57
2017-10-12T16:08:10.230Z,10.50
2017-10-12T16:10:37.683Z,6.27
2017-10-12T16:13:05.112Z,4.57
2017-10-12T16:15:32.568Z,3.90
2017-10-12T16:18:00.002Z,3.50
2017-10-12T16:20:27.467Z,4.87
2017-10-12T16:25:22.372Z,4.73
2017-10-12T16:27:49.829Z,3.80
2017-10-12T16:30:17.264Z,7.27
2017-10-12T16:35:12.168Z,7.77
2017-10-12T16:37:39.664Z,8.23
2017-10-12T16:40:07.886Z,5.43
2017-10-12T16:42:35.324Z,7.10
2017-10-12T16:45:02.761Z,9.20
2017-10-12T16:47:30.201Z,8.70
2017-10-12T16:49:57.636Z,8.20
2017-10-12T16:52:25.075Z,5.30
2017-10-12T16:54:52.511Z,4.13
2017-10-12T16:57:19.984Z,4.90
2017-10-12T16:59:47.412Z,3.40
2017-10-12T17:02:14.861Z,3.77
2017-10-12T17:04:42.297Z,3.40
2017-10-12T17:07:09.765Z,6.50
2017-10-12T17:09:37.208Z,5.07
2017-10-12T17:12:04.666Z,4.00
2017-10-12T17:14:32.188Z,4.73
2017-10-12T17:16:59.663Z,4.30
2017-10-12T17:19:27.140Z,4.70
2017-10-12T17:21:54.576Z,5.00
2017-10-12T17:24:22.780Z,6.50
2017-10-12T17:26:50.265Z,6.10
2017-10-12T17:29:18.462Z,5.40
2017-10-12T17:31:45.909Z,5.60
2017-10-12T17:34:13.400Z,5.77
2017-10-12T17:36:40.828Z,6.23
2017-10-12T17:39:09.053Z,6.07
2017-10-12T17:41:36.516Z,6.43
2017-10-12T17:44:03.945Z,6.00
2017-10-12T17:46:31.383Z,6.67
2017-10-12T17:48:58.908Z,7.50
2017-10-12T17:51:27.056Z,5.93
2017-10-12T17:53:54.505Z,7.10
2017-10-12T17:56:21.963Z,6.63
2017-10-12T17:58:49.417Z,6.47
2017-10-12T18:01:16.856Z,7.17
2017-10-12T18:03:44.288Z,6.60
2017-10-12T18:06:11.741Z,6.77
2017-10-12T18:08:39.178Z,5.67
2017-10-12T18:11:06.615Z,5.67
2017-10-12T18:13:34.077Z,6.47
2017-10-12T18:16:01.512Z,6.53
2017-10-12T18:18:29.071Z,10.63
2017-10-12T18:20:56.523Z,26.83
2017-10-12T18:23:23.958Z,9.90
2017-10-12T18:25:51.390Z,7.43
2017-10-12T18:28:18.848Z,6.73
2017-10-12T18:30:46.872Z,7.23
2017-10-12T18:33:14.327Z,7.77
2017-10-12T18:35:41.753Z,7.17
2017-10-12T18:38:09.185Z,7.20
2017-10-12T18:40:36.644Z,6.60
2017-10-12T18:43:04.085Z,6.33
2017-10-12T18:45:31.535Z,6.50
2017-10-12T18:47:58.975Z,13.47
2017-10-12T18:50:26.453Z,21.27
2017-10-12T18:52:53.879Z,22.80
2017-10-12T18:55:21.350Z,17.20
2017-10-12T18:57:48.791Z,6.57
2017-10-12T19:00:16.246Z,6.20
2017-10-12T19:02:43.676Z,7.17
2017-10-12T19:05:11.118Z,7.67
2017-10-12T19:07:38.552Z,7.17
2017-10-12T19:10:06.036Z,7.83
2017-10-12T19:12:34.247Z,8.63
2017-10-12T19:15:01.688Z,8.10
2017-10-12T19:17:29.125Z,8.87
2017-10-12T19:19:56.576Z,7.63
2017-10-12T19:22:24.018Z,7.60
2017-10-12T19:24:51.469Z,7.27
2017-10-12T19:27:18.909Z,6.37
2017-10-12T19:29:46.343Z,5.93
2017-10-12T19:32:13.784Z,6.73
2017-10-12T19:34:41.214Z,7.40
2017-10-12T19:37:08.648Z,6.87
2017-10-12T19:39:36.105Z,6.73
2017-10-12T19:42:03.660Z,6.27
2017-10-12T19:44:31.118Z,7.77
2017-10-12T19:46:58.547Z,6.63
2017-10-12T19:49:26.002Z,7.23
2017-10-12T19:51:53.455Z,7.10
2017-10-12T19:54:21.698Z,9.33
2017-10-12T19:56:49.136Z,6.40
2017-10-12T19:59:16.581Z,7.00
2017-10-12T20:01:44.032Z,7.03
2017-10-12T20:04:11.476Z,8.70
2017-10-12T20:06:38.920Z,7.83
2017-10-12T20:09:06.379Z,7.00
2017-10-12T20:11:33.860Z,7.17
2017-10-12T20:16:28.748Z,7.23
2017-10-12T20:18:56.199Z,7.23
2017-10-12T20:21:23.655Z,6.60
2017-10-12T20:23:51.111Z,8.43
2017-10-12T20:26:18.571Z,7.90
2017-10-12T20:28:46.020Z,7.57
2017-10-12T20:31:14.237Z,8.30
2017-10-12T20:33:41.697Z,8.47
2017-10-12T20:36:09.249Z,9.10
2017-10-12T20:38:36.712Z,8.17
2017-10-12T20:41:04.181Z,7.77
2017-10-12T20:43:31.637Z,8.30
2017-10-12T20:45:59.087Z,7.60
2017-10-12T20:48:27.320Z,7.73
2017-10-12T20:50:54.847Z,7.10
2017-10-12T20:53:22.284Z,7.70
2017-10-12T20:55:49.721Z,7.47
2017-10-12T20:58:17.159Z,6.90
2017-10-12T21:00:44.610Z,8.30
2017-10-12T21:03:12.064Z,7.30
2017-10-12T21:05:39.495Z,8.90
2017-10-12T21:08:06.947Z,10.80
2017-10-12T21:10:34.371Z,10.30
2017-10-12T21:13:01.850Z,11.73
2017-10-12T21:15:29.360Z,11.63
2017-10-12T21:17:56.812Z,11.00
2017-10-12T21:20:24.263Z,10.17
2017-10-12T21:22:51.719Z,9.53
2017-10-12T21:25:19.156Z,9.10
2017-10-12T21:27:46.636Z,8.93
2017-10-12T21:30:14.841Z,8.63
2017-10-12T21:32:42.354Z,7.33
2017-10-12T21:35:10.650Z,6.80
2017-10-12T21:37:38.088Z,6.90
2017-10-12T21:40:05.624Z,6.73
2017-10-12T21:42:33.059Z,7.13
2017-10-12T21:45:00.495Z,6.47
2017-10-12T21:47:27.929Z,6.60
2017-10-12T21:49:55.396Z,6.70
2017-10-12T21:52:22.849Z,6.40
2017-10-12T21:54:50.302Z,5.87
2017-10-12T21:57:17.751Z,5.93
2017-10-12T21:59:45.218Z,6.10
2017-10-12T22:02:13.449Z,6.43
2017-10-12T22:04:40.898Z,5.80
2017-10-12T22:07:08.368Z,5.87
2017-10-12T22:09:35.832Z,6.60
2017-10-12T22:12:03.446Z,5.97
2017-10-12T22:14:30.988Z,5.23
2017-10-12T22:16:58.424Z,6.40
2017-10-12T22:19:26.007Z,6.63
2017-10-12T22:21:53.513Z,6.20
2017-10-12T22:24:21.122Z,5.97
2017-10-12T22:26:48.608Z,5.70
2017-10-12T22:29:16.140Z,6.30
2017-10-12T22:31:43.583Z,5.60
2017-10-12T22:34:11.111Z,6.03
2017-10-12T22:36:38.551Z,5.43
2017-10-12T22:39:06.767Z,22.80
2017-10-12T22:41:34.224Z,6.83
2017-10-12T22:44:01.665Z,5.90
2017-10-12T22:46:29.177Z,5.53
2017-10-12T22:48:56.643Z,6.20
2017-10-12T22:51:24.100Z,6.27
2017-10-12T22:53:51.542Z,5.77
2017-10-12T22:56:19.012Z,5.90
2017-10-12T22:58:47.217Z,6.00
2017-10-12T23:01:14.690Z,6.93
2017-10-12T23:03:42.112Z,5.63
2017-10-12T23:06:09.560Z,6.03
2017-10-12T23:08:36.987Z,7.10
2017-10-12T23:11:04.431Z,6.30
2017-10-12T23:16:05.859Z,6.73
2017-10-12T23:18:33.282Z,7.50
2017-10-12T23:21:00.743Z,7.10
2017-10-12T23:23:28.190Z,6.33
2017-10-12T23:25:55.625Z,7.17
2017-10-12T23:28:23.056Z,7.03
2017-10-12T23:30:50.489Z,8.30
2017-10-12T23:33:17.934Z,7.70
2017-10-12T23:38:20.107Z,7.13
2017-10-12T23:40:47.531Z,7.50
2017-10-12T23:43:14.964Z,7.40
2017-10-12T23:45:42.387Z,7.30
2017-10-12T23:48:10.610Z,8.00
2017-10-12T23:50:38.067Z,6.20
2017-10-12T23:53:05.608Z,7.30
2017-10-12T23:55:33.045Z,6.90
2017-10-12T23:58:00.573Z,8.37
